createdAt,value
2022-10-05T00:00:58.427Z,1.58
2022-10-05T00:06:30.539Z,1.80
2022-10-05T00:12:13.769Z,1.80
2022-10-05T00:17:44.858Z,2.23
2022-10-05T00:23:28.086Z,1.83
2022-10-05T00:28:58.986Z,1.90
2022-10-05T00:34:30.094Z,2.08
2022-10-05T00:40:01.412Z,1.80
2022-10-05T00:45:41.264Z,1.88
2022-10-05T00:51:47.864Z,1.80
2022-10-05T00:57:18.834Z,2.13
2022-10-05T01:02:58.846Z,1.80
2022-10-05T01:09:06.519Z,2.10
2022-10-05T01:14:56.778Z,1.88
2022-10-05T01:20:31.210Z,2.10
2022-10-05T01:26:09.879Z,2.10
2022-10-05T01:32:10.742Z,2.08
2022-10-05T01:37:57.288Z,2.40
2022-10-05T01:43:34.311Z,2.10
2022-10-05T01:49:20.719Z,2.30
2022-10-05T01:55:06.724Z,2.50
2022-10-05T02:00:49.881Z,2.67
2022-10-05T02:06:25.368Z,1.98
2022-10-05T02:12:04.313Z,2.35
2022-10-05T02:17:40.881Z,2.65
2022-10-05T02:23:19.924Z,2.33
2022-10-05T02:29:00.463Z,2.50
2022-10-05T02:34:40.086Z,2.30
2022-10-05T02:40:21.995Z,2.30
2022-10-05T02:45:56.355Z,2.25
2022-10-05T02:51:41.297Z,2.60
2022-10-05T02:57:33.966Z,2.47
2022-10-05T03:03:19.755Z,2.88
2022-10-05T03:09:00.944Z,2.80
2022-10-05T03:14:47.032Z,3.00
2022-10-05T03:20:45.358Z,2.78
2022-10-05T03:26:37.877Z,2.78
2022-10-05T03:32:21.865Z,3.00
2022-10-05T03:38:12.633Z,2.93
2022-10-05T03:43:55.859Z,2.88
2022-10-05T03:49:49.548Z,3.80
2022-10-05T03:55:32.125Z,3.30
2022-10-05T04:01:08.922Z,2.97
2022-10-05T04:06:48.433Z,3.58
2022-10-05T04:12:30.548Z,3.70
2022-10-05T04:18:06.492Z,3.30
2022-10-05T04:24:07.129Z,3.20
2022-10-05T04:29:46.895Z,3.35
2022-10-05T04:35:45.083Z,3.67
2022-10-05T04:41:33.863Z,3.35
2022-10-05T04:47:48.130Z,3.05
2022-10-05T04:53:30.513Z,3.50
2022-10-05T04:59:13.494Z,3.47
2022-10-05T05:05:13.038Z,4.10
2022-10-05T05:10:53.196Z,3.38
2022-10-05T05:16:39.667Z,3.22
2022-10-05T05:22:20.583Z,3.22
2022-10-05T05:27:58.668Z,3.47
2022-10-05T05:33:36.412Z,3.22
2022-10-05T05:39:12.212Z,3.40
2022-10-05T05:44:55.430Z,3.40
2022-10-05T05:50:50.356Z,3.25
2022-10-05T05:56:36.610Z,3.17
2022-10-05T06:02:15.428Z,3.30
2022-10-05T06:07:46.856Z,3.20
2022-10-05T06:13:24.408Z,3.28
2022-10-05T06:19:04.501Z,2.92
2022-10-05T06:24:50.067Z,2.75
2022-10-05T06:30:21.457Z,3.22
2022-10-05T06:35:58.600Z,2.97
2022-10-05T06:42:06.500Z,2.88
2022-10-05T06:48:21.925Z,2.42
2022-10-05T06:54:33.678Z,2.95
2022-10-05T07:00:37.433Z,2.40
2022-10-05T07:06:41.050Z,2.60
2022-10-05T07:12:51.468Z,2.53
2022-10-05T07:18:37.343Z,2.42
2022-10-05T07:24:38.312Z,2.73
2022-10-05T07:30:14.430Z,2.55
2022-10-05T07:36:05.794Z,2.33
2022-10-05T07:41:51.574Z,2.40
2022-10-05T07:47:36.402Z,2.70
2022-10-05T07:53:17.407Z,2.58
2022-10-05T07:58:57.248Z,3.17
2022-10-05T08:04:32.060Z,2.38
2022-10-05T08:10:28.063Z,2.60
2022-10-05T08:16:03.921Z,2.75
2022-10-05T08:21:50.689Z,2.53
2022-10-05T08:27:35.782Z,2.78
2022-10-05T08:33:12.382Z,2.45
2022-10-05T08:38:43.637Z,2.97
2022-10-05T08:44:33.554Z,2.47
2022-10-05T08:50:07.480Z,2.60
2022-10-05T08:55:44.004Z,2.25
2022-10-05T09:01:30.045Z,2.35
2022-10-05T09:07:31.894Z,2.00
2022-10-05T09:13:24.797Z,2.10
2022-10-05T09:19:23.859Z,2.10
2022-10-05T09:24:57.554Z,2.47
2022-10-05T09:30:56.366Z,2.15
2022-10-05T09:36:27.384Z,2.00
2022-10-05T09:42:16.935Z,1.90
2022-10-05T09:47:50.810Z,2.20
2022-10-05T09:53:44.999Z,2.15
2022-10-05T09:59:31.857Z,1.85
2022-10-05T10:05:09.068Z,1.73
2022-10-05T10:11:17.744Z,2.30
2022-10-05T10:17:18.321Z,1.75
2022-10-05T10:22:55.009Z,1.90
2022-10-05T10:28:44.688Z,1.90
2022-10-05T10:34:16.822Z,2.00
2022-10-05T10:40:15.014Z,1.75
2022-10-05T10:46:19.080Z,1.90
2022-10-05T10:52:15.217Z,2.23
2022-10-05T10:57:51.958Z,1.83
2022-10-05T11:03:41.504Z,1.90
2022-10-05T11:09:31.157Z,1.80
2022-10-05T11:15:23.469Z,1.63
2022-10-05T11:21:18.812Z,1.90
2022-10-05T11:27:03.396Z,1.65
2022-10-05T11:32:43.793Z,1.63
2022-10-05T11:38:26.920Z,1.80
2022-10-05T11:44:16.383Z,1.37
2022-10-05T11:49:50.616Z,1.35
2022-10-05T11:55:44.702Z,1.83
2022-10-05T12:01:35.036Z,1.40
2022-10-05T12:07:36.232Z,1.50
2022-10-05T12:13:43.452Z,1.70
2022-10-05T12:19:22.158Z,1.50
2022-10-05T12:25:12.079Z,1.60
2022-10-05T12:31:01.414Z,1.75
2022-10-05T12:37:02.482Z,1.70
2022-10-05T12:42:30.527Z,1.50
2022-10-05T12:48:10.536Z,1.83
2022-10-05T12:53:48.807Z,1.73
2022-10-05T12:59:31.961Z,1.45
2022-10-05T13:05:09.085Z,1.88
2022-10-05T13:11:01.834Z,1.65
2022-10-05T13:16:55.346Z,1.90
2022-10-05T13:23:02.135Z,1.58
2022-10-05T13:28:59.759Z,1.55
2022-10-05T13:34:56.650Z,1.80
2022-10-05T13:40:39.628Z,1.45
2022-10-05T13:46:28.739Z,2.00
2022-10-05T13:52:09.256Z,1.50
2022-10-05T13:58:14.230Z,1.65
2022-10-05T14:04:05.549Z,1.70
2022-10-05T14:09:37.126Z,1.60
2022-10-05T14:15:23.658Z,1.95
2022-10-05T14:21:03.020Z,1.55
2022-10-05T14:26:36.154Z,1.67
2022-10-05T14:32:14.538Z,1.83
2022-10-05T14:37:59.058Z,1.70
2022-10-05T14:43:30.029Z,1.65
2022-10-05T14:49:17.447Z,1.88
2022-10-05T14:55:14.525Z,2.33
2022-10-05T15:01:04.128Z,1.63
2022-10-05T15:06:38.771Z,1.83
2022-10-05T15:12:14.462Z,1.70
2022-10-05T15:17:52.851Z,1.85
2022-10-05T15:23:30.841Z,1.70
2022-10-05T15:29:09.443Z,1.83
2022-10-05T15:34:58.676Z,1.80
2022-10-05T15:40:47.218Z,1.70
2022-10-05T15:46:34.489Z,1.77
2022-10-05T15:52:26.784Z,1.60
2022-10-05T15:58:22.926Z,1.80
2022-10-05T16:04:12.314Z,1.63
2022-10-05T16:09:52.504Z,1.80
2022-10-05T16:15:50.349Z,1.70
2022-10-05T16:21:46.086Z,1.80
2022-10-05T16:27:25.582Z,1.90
2022-10-05T16:33:13.058Z,1.65
2022-10-05T16:38:55.126Z,2.30
2022-10-05T16:44:50.572Z,1.80
2022-10-05T16:50:46.628Z,2.08
2022-10-05T16:56:20.507Z,1.95
2022-10-05T17:02:10.461Z,2.00
2022-10-05T17:08:14.387Z,2.00
2022-10-05T17:14:11.660Z,2.00
2022-10-05T17:20:01.107Z,2.10
2022-10-05T17:25:48.887Z,2.10
2022-10-05T17:31:28.411Z,2.38
2022-10-05T17:37:25.741Z,2.10
2022-10-05T17:43:01.537Z,2.28
2022-10-05T17:48:54.707Z,2.03
2022-10-05T17:55:11.342Z,2.15
2022-10-05T18:01:02.971Z,2.80
2022-10-05T18:06:48.298Z,2.22
2022-10-05T18:12:19.814Z,2.60
2022-10-05T18:17:59.973Z,2.50
2022-10-05T18:23:36.203Z,2.30
2022-10-05T18:29:44.558Z,2.35
2022-10-05T18:35:21.930Z,2.70
2022-10-05T18:41:09.380Z,2.33
2022-10-05T18:46:55.566Z,2.40
2022-10-05T18:52:40.206Z,2.22
2022-10-05T18:58:33.613Z,2.42
2022-10-05T19:04:26.098Z,2.25
2022-10-05T19:10:25.817Z,2.30
2022-10-05T19:16:28.206Z,2.40
2022-10-05T19:22:28.549Z,2.70
2022-10-05T19:28:22.193Z,2.63
2022-10-05T19:34:06.939Z,2.58
2022-10-05T19:45:13.623Z,2.35
2022-10-05T19:50:56.484Z,2.70
2022-10-05T19:56:31.789Z,2.60
2022-10-05T20:02:04.573Z,2.72
2022-10-05T20:07:36.460Z,2.20
2022-10-05T20:13:20.050Z,2.60
2022-10-05T20:19:09.766Z,2.67
2022-10-05T20:25:01.310Z,2.17
2022-10-05T20:30:34.269Z,2.50
2022-10-05T20:36:05.587Z,2.92
2022-10-05T20:41:36.795Z,2.17
2022-10-05T20:47:10.117Z,2.67
2022-10-05T20:52:41.375Z,2.65
2022-10-05T20:58:12.411Z,2.60
2022-10-05T21:03:43.735Z,2.80
2022-10-05T21:09:16.604Z,2.70
2022-10-05T21:14:47.748Z,3.00
2022-10-05T21:20:18.914Z,3.03
2022-10-05T21:25:50.133Z,2.95
2022-10-05T21:31:21.485Z,3.40
2022-10-05T21:36:52.791Z,2.97
2022-10-05T21:42:23.966Z,3.63
2022-10-05T21:47:56.814Z,3.47
2022-10-05T21:53:31.980Z,3.13
2022-10-05T21:59:09.047Z,2.97
2022-10-05T22:04:40.152Z,3.33
2022-10-05T22:10:11.439Z,2.70
2022-10-05T22:15:42.231Z,3.03
2022-10-05T22:21:14.068Z,3.38
2022-10-05T22:26:47.672Z,2.85
2022-10-05T22:32:18.767Z,3.30
2022-10-05T22:37:50.045Z,2.72
2022-10-05T22:43:20.872Z,2.95
2022-10-05T22:48:52.242Z,3.08
2022-10-05T22:54:27.464Z,3.15
2022-10-05T23:00:00.577Z,3.00
2022-10-05T23:05:31.475Z,3.28
2022-10-05T23:11:06.720Z,2.75
2022-10-05T23:16:37.612Z,3.13
2022-10-05T23:22:08.991Z,3.58
2022-10-05T23:27:41.254Z,2.83
2022-10-05T23:33:12.382Z,2.92
2022-10-05T23:38:43.791Z,3.00
2022-10-05T23:44:14.910Z,2.95
2022-10-05T23:49:46.208Z,3.15
2022-10-05T23:55:17.320Z,2.70
